sensor_id;sensor_type;location;lat;lon;timestamp;P1;durP1;ratioP1;P2;durP2;ratioP2
24216;SDS011;12356;49.386;8.688;2023-07-02T00:02:29;4.38;;;3.00;;
24216;SDS011;12356;49.386;8.688;2023-07-02T00:05:00;8.82;;;3.30;;
24216;SDS011;12356;49.386;8.688;2023-07-02T00:07:30;4.30;;;3.08;;
24216;SDS011;12356;49.386;8.688;2023-07-02T00:10:01;4.45;;;3.10;;
24216;SDS011;12356;49.386;8.688;2023-07-02T00:12:32;6.80;;;3.42;;
24216;SDS011;12356;49.386;8.688;2023-07-02T00:15:03;6.95;;;3.50;;
24216;SDS011;12356;49.386;8.688;2023-07-02T00:17:34;5.45;;;3.00;;
24216;SDS011;12356;49.386;8.688;2023-07-02T00:20:05;6.05;;;2.90;;
24216;SDS011;12356;49.386;8.688;2023-07-02T00:22:43;4.68;;;3.08;;
24216;SDS011;12356;49.386;8.688;2023-07-02T00:25:16;4.65;;;3.22;;
24216;SDS011;12356;49.386;8.688;2023-07-02T00:27:46;5.43;;;3.03;;
24216;SDS011;12356;49.386;8.688;2023-07-02T00:30:17;6.72;;;3.33;;
24216;SDS011;12356;49.386;8.688;2023-07-02T00:32:49;3.97;;;3.25;;
24216;SDS011;12356;49.386;8.688;2023-07-02T00:35:19;4.25;;;3.00;;
24216;SDS011;12356;49.386;8.688;2023-07-02T00:37:50;4.57;;;3.00;;
24216;SDS011;12356;49.386;8.688;2023-07-02T00:40:21;5.07;;;3.10;;
24216;SDS011;12356;49.386;8.688;2023-07-02T00:42:52;4.82;;;3.10;;
24216;SDS011;12356;49.386;8.688;2023-07-02T00:45:22;5.10;;;3.08;;
24216;SDS011;12356;49.386;8.688;2023-07-02T00:47:56;6.35;;;3.20;;
24216;SDS011;12356;49.386;8.688;2023-07-02T00:50:26;6.18;;;2.90;;
24216;SDS011;12356;49.386;8.688;2023-07-02T00:52:57;5.35;;;2.92;;
24216;SDS011;12356;49.386;8.688;2023-07-02T00:55:28;6.00;;;3.15;;
24216;SDS011;12356;49.386;8.688;2023-07-02T00:57:59;5.80;;;3.20;;
24216;SDS011;12356;49.386;8.688;2023-07-02T01:00:29;4.15;;;3.03;;
24216;SDS011;12356;49.386;8.688;2023-07-02T01:03:00;4.85;;;3.17;;
24216;SDS011;12356;49.386;8.688;2023-07-02T01:05:31;5.13;;;2.83;;
24216;SDS011;12356;49.386;8.688;2023-07-02T01:08:05;5.38;;;2.95;;
24216;SDS011;12356;49.386;8.688;2023-07-02T01:10:36;5.78;;;3.10;;
24216;SDS011;12356;49.386;8.688;2023-07-02T01:13:11;4.75;;;3.00;;
24216;SDS011;12356;49.386;8.688;2023-07-02T01:15:51;5.03;;;3.33;;
24216;SDS011;12356;49.386;8.688;2023-07-02T01:18:22;4.72;;;3.08;;
24216;SDS011;12356;49.386;8.688;2023-07-02T01:20:53;5.32;;;3.00;;
24216;SDS011;12356;49.386;8.688;2023-07-02T01:23:24;5.70;;;2.70;;
24216;SDS011;12356;49.386;8.688;2023-07-02T01:25:55;5.45;;;3.20;;
24216;SDS011;12356;49.386;8.688;2023-07-02T01:28:34;6.63;;;3.20;;
24216;SDS011;12356;49.386;8.688;2023-07-02T01:31:06;5.65;;;3.20;;
24216;SDS011;12356;49.386;8.688;2023-07-02T01:33:37;7.50;;;3.30;;
24216;SDS011;12356;49.386;8.688;2023-07-02T01:36:07;6.00;;;3.17;;
24216;SDS011;12356;49.386;8.688;2023-07-02T01:38:39;6.53;;;3.22;;
24216;SDS011;12356;49.386;8.688;2023-07-02T01:41:09;5.10;;;3.38;;
24216;SDS011;12356;49.386;8.688;2023-07-02T01:43:40;4.55;;;3.33;;
24216;SDS011;12356;49.386;8.688;2023-07-02T01:46:10;5.00;;;3.17;;
24216;SDS011;12356;49.386;8.688;2023-07-02T01:48:41;3.78;;;3.30;;
24216;SDS011;12356;49.386;8.688;2023-07-02T01:51:11;5.68;;;3.45;;
24216;SDS011;12356;49.386;8.688;2023-07-02T01:53:43;6.30;;;3.42;;
24216;SDS011;12356;49.386;8.688;2023-07-02T01:56:14;10.20;;;3.35;;
24216;SDS011;12356;49.386;8.688;2023-07-02T01:58:44;4.72;;;3.20;;
24216;SDS011;12356;49.386;8.688;2023-07-02T02:01:15;6.22;;;3.60;;
24216;SDS011;12356;49.386;8.688;2023-07-02T02:03:45;7.38;;;3.47;;
24216;SDS011;12356;49.386;8.688;2023-07-02T02:06:16;5.15;;;3.53;;
24216;SDS011;12356;49.386;8.688;2023-07-02T02:08:46;5.35;;;3.67;;
24216;SDS011;12356;49.386;8.688;2023-07-02T02:11:17;5.15;;;3.50;;
24216;SDS011;12356;49.386;8.688;2023-07-02T02:13:48;5.80;;;3.60;;
24216;SDS011;12356;49.386;8.688;2023-07-02T02:16:19;5.88;;;3.40;;
24216;SDS011;12356;49.386;8.688;2023-07-02T02:18:50;6.97;;;2.97;;
24216;SDS011;12356;49.386;8.688;2023-07-02T02:21:22;7.57;;;3.47;;
24216;SDS011;12356;49.386;8.688;2023-07-02T02:23:52;5.65;;;3.20;;
24216;SDS011;12356;49.386;8.688;2023-07-02T02:26:23;12.02;;;3.22;;
24216;SDS011;12356;49.386;8.688;2023-07-02T02:28:55;5.82;;;3.38;;
24216;SDS011;12356;49.386;8.688;2023-07-02T02:31:26;5.80;;;3.00;;
24216;SDS011;12356;49.386;8.688;2023-07-02T02:33:58;6.13;;;3.20;;
24216;SDS011;12356;49.386;8.688;2023-07-02T02:36:28;5.50;;;3.35;;
24216;SDS011;12356;49.386;8.688;2023-07-02T02:38:59;4.85;;;3.30;;
24216;SDS011;12356;49.386;8.688;2023-07-02T02:41:29;6.30;;;3.05;;
24216;SDS011;12356;49.386;8.688;2023-07-02T02:44:00;4.22;;;3.00;;
24216;SDS011;12356;49.386;8.688;2023-07-02T02:46:31;5.57;;;3.10;;
24216;SDS011;12356;49.386;8.688;2023-07-02T02:49:02;6.32;;;3.47;;
24216;SDS011;12356;49.386;8.688;2023-07-02T02:51:32;8.93;;;4.20;;
24216;SDS011;12356;49.386;8.688;2023-07-02T02:54:03;9.43;;;4.20;;
24216;SDS011;12356;49.386;8.688;2023-07-02T02:56:33;9.60;;;4.40;;
24216;SDS011;12356;49.386;8.688;2023-07-02T02:59:04;7.45;;;4.40;;
24216;SDS011;12356;49.386;8.688;2023-07-02T03:01:34;10.50;;;4.72;;
24216;SDS011;12356;49.386;8.688;2023-07-02T03:04:05;8.25;;;4.90;;
24216;SDS011;12356;49.386;8.688;2023-07-02T03:06:39;10.27;;;4.93;;
24216;SDS011;12356;49.386;8.688;2023-07-02T03:09:09;9.35;;;5.13;;
24216;SDS011;12356;49.386;8.688;2023-07-02T03:11:40;11.27;;;5.60;;
24216;SDS011;12356;49.386;8.688;2023-07-02T03:14:11;10.60;;;5.50;;
24216;SDS011;12356;49.386;8.688;2023-07-02T03:16:42;10.75;;;6.00;;
24216;SDS011;12356;49.386;8.688;2023-07-02T03:19:15;9.57;;;5.80;;
24216;SDS011;12356;49.386;8.688;2023-07-02T03:21:45;12.15;;;5.60;;
24216;SDS011;12356;49.386;8.688;2023-07-02T03:24:16;10.63;;;5.85;;
24216;SDS011;12356;49.386;8.688;2023-07-02T03:26:47;10.40;;;6.35;;
24216;SDS011;12356;49.386;8.688;2023-07-02T03:29:18;10.85;;;5.72;;
24216;SDS011;12356;49.386;8.688;2023-07-02T03:31:50;12.13;;;6.22;;
24216;SDS011;12356;49.386;8.688;2023-07-02T03:34:21;14.20;;;6.05;;
24216;SDS011;12356;49.386;8.688;2023-07-02T03:36:54;11.68;;;5.97;;
24216;SDS011;12356;49.386;8.688;2023-07-02T03:39:24;11.65;;;5.85;;
24216;SDS011;12356;49.386;8.688;2023-07-02T03:41:55;11.25;;;5.65;;
24216;SDS011;12356;49.386;8.688;2023-07-02T03:44:25;14.13;;;6.05;;
24216;SDS011;12356;49.386;8.688;2023-07-02T03:46:56;13.32;;;6.18;;
24216;SDS011;12356;49.386;8.688;2023-07-02T03:49:26;9.93;;;6.25;;
24216;SDS011;12356;49.386;8.688;2023-07-02T03:51:57;11.35;;;6.40;;
24216;SDS011;12356;49.386;8.688;2023-07-02T03:54:27;10.70;;;5.95;;
24216;SDS011;12356;49.386;8.688;2023-07-02T03:56:58;13.35;;;6.25;;
24216;SDS011;12356;49.386;8.688;2023-07-02T03:59:29;13.43;;;5.65;;
24216;SDS011;12356;49.386;8.688;2023-07-02T04:01:59;10.70;;;5.80;;
24216;SDS011;12356;49.386;8.688;2023-07-02T04:04:30;10.63;;;5.82;;
24216;SDS011;12356;49.386;8.688;2023-07-02T04:07:00;10.13;;;5.93;;
24216;SDS011;12356;49.386;8.688;2023-07-02T04:09:31;10.80;;;5.55;;
24216;SDS011;12356;49.386;8.688;2023-07-02T04:12:03;12.05;;;5.90;;
24216;SDS011;12356;49.386;8.688;2023-07-02T04:14:34;13.40;;;6.13;;
24216;SDS011;12356;49.386;8.688;2023-07-02T04:17:05;12.00;;;5.60;;
24216;SDS011;12356;49.386;8.688;2023-07-02T04:19:35;9.15;;;5.25;;
24216;SDS011;12356;49.386;8.688;2023-07-02T04:22:06;11.75;;;5.75;;
24216;SDS011;12356;49.386;8.688;2023-07-02T04:24:36;10.90;;;5.60;;
24216;SDS011;12356;49.386;8.688;2023-07-02T04:27:07;11.02;;;5.97;;
24216;SDS011;12356;49.386;8.688;2023-07-02T04:29:38;12.95;;;5.70;;
24216;SDS011;12356;49.386;8.688;2023-07-02T04:32:08;11.50;;;5.60;;
24216;SDS011;12356;49.386;8.688;2023-07-02T04:34:39;13.18;;;5.97;;
24216;SDS011;12356;49.386;8.688;2023-07-02T04:37:09;12.13;;;5.72;;
24216;SDS011;12356;49.386;8.688;2023-07-02T04:39:40;10.18;;;5.15;;
24216;SDS011;12356;49.386;8.688;2023-07-02T04:42:11;11.50;;;5.70;;
24216;SDS011;12356;49.386;8.688;2023-07-02T04:44:43;9.60;;;5.43;;
24216;SDS011;12356;49.386;8.688;2023-07-02T04:47:13;12.00;;;5.60;;
24216;SDS011;12356;49.386;8.688;2023-07-02T04:49:44;10.32;;;5.40;;
24216;SDS011;12356;49.386;8.688;2023-07-02T04:52:14;9.20;;;4.50;;
24216;SDS011;12356;49.386;8.688;2023-07-02T04:54:45;11.43;;;5.50;;
24216;SDS011;12356;49.386;8.688;2023-07-02T04:57:16;10.90;;;5.20;;
24216;SDS011;12356;49.386;8.688;2023-07-02T04:59:46;10.32;;;5.40;;
24216;SDS011;12356;49.386;8.688;2023-07-02T05:02:17;13.07;;;5.70;;
24216;SDS011;12356;49.386;8.688;2023-07-02T05:04:48;9.70;;;4.93;;
24216;SDS011;12356;49.386;8.688;2023-07-02T05:07:18;10.80;;;5.05;;
24216;SDS011;12356;49.386;8.688;2023-07-02T05:09:49;12.93;;;5.30;;
24216;SDS011;12356;49.386;8.688;2023-07-02T05:12:22;9.93;;;5.53;;
24216;SDS011;12356;49.386;8.688;2023-07-02T05:14:53;10.40;;;5.50;;
24216;SDS011;12356;49.386;8.688;2023-07-02T05:17:24;11.00;;;5.35;;
24216;SDS011;12356;49.386;8.688;2023-07-02T05:19:54;10.38;;;5.30;;
24216;SDS011;12356;49.386;8.688;2023-07-02T05:22:25;9.13;;;5.70;;
24216;SDS011;12356;49.386;8.688;2023-07-02T05:24:55;10.02;;;5.53;;
24216;SDS011;12356;49.386;8.688;2023-07-02T05:27:26;12.07;;;6.07;;
24216;SDS011;12356;49.386;8.688;2023-07-02T05:29:56;10.40;;;5.90;;
24216;SDS011;12356;49.386;8.688;2023-07-02T05:32:27;11.52;;;5.53;;
24216;SDS011;12356;49.386;8.688;2023-07-02T05:34:57;14.07;;;5.20;;
24216;SDS011;12356;49.386;8.688;2023-07-02T05:37:28;7.50;;;4.93;;
24216;SDS011;12356;49.386;8.688;2023-07-02T05:39:59;9.98;;;4.97;;
24216;SDS011;12356;49.386;8.688;2023-07-02T05:42:29;11.60;;;5.22;;
24216;SDS011;12356;49.386;8.688;2023-07-02T05:45:00;9.20;;;5.05;;
24216;SDS011;12356;49.386;8.688;2023-07-02T05:47:30;13.35;;;5.70;;
24216;SDS011;12356;49.386;8.688;2023-07-02T05:50:01;8.32;;;5.10;;
24216;SDS011;12356;49.386;8.688;2023-07-02T05:52:31;8.50;;;5.43;;
24216;SDS011;12356;49.386;8.688;2023-07-02T05:55:02;10.60;;;5.90;;
24216;SDS011;12356;49.386;8.688;2023-07-02T05:57:33;11.98;;;5.32;;
24216;SDS011;12356;49.386;8.688;2023-07-02T06:00:07;11.40;;;5.40;;
24216;SDS011;12356;49.386;8.688;2023-07-02T06:02:38;8.50;;;5.18;;
24216;SDS011;12356;49.386;8.688;2023-07-02T06:05:08;10.55;;;5.60;;
24216;SDS011;12356;49.386;8.688;2023-07-02T06:07:39;13.52;;;5.85;;
24216;SDS011;12356;49.386;8.688;2023-07-02T06:10:09;14.05;;;6.47;;
24216;SDS011;12356;49.386;8.688;2023-07-02T06:12:40;12.15;;;6.50;;
24216;SDS011;12356;49.386;8.688;2023-07-02T06:15:11;13.98;;;6.30;;
24216;SDS011;12356;49.386;8.688;2023-07-02T06:17:42;16.90;;;6.75;;
24216;SDS011;12356;49.386;8.688;2023-07-02T06:20:12;14.38;;;6.57;;
24216;SDS011;12356;49.386;8.688;2023-07-02T06:22:43;16.33;;;7.20;;
24216;SDS011;12356;49.386;8.688;2023-07-02T06:25:14;12.15;;;6.95;;
24216;SDS011;12356;49.386;8.688;2023-07-02T06:27:44;14.20;;;7.03;;
24216;SDS011;12356;49.386;8.688;2023-07-02T06:30:15;15.13;;;7.15;;
24216;SDS011;12356;49.386;8.688;2023-07-02T06:32:46;16.55;;;7.80;;
24216;SDS011;12356;49.386;8.688;2023-07-02T06:35:16;16.15;;;7.97;;
24216;SDS011;12356;49.386;8.688;2023-07-02T06:37:47;18.08;;;8.35;;
24216;SDS011;12356;49.386;8.688;2023-07-02T06:40:18;15.02;;;8.07;;
24216;SDS011;12356;49.386;8.688;2023-07-02T06:42:48;17.98;;;8.85;;
24216;SDS011;12356;49.386;8.688;2023-07-02T06:45:19;15.60;;;8.70;;
24216;SDS011;12356;49.386;8.688;2023-07-02T06:47:49;15.27;;;8.10;;
24216;SDS011;12356;49.386;8.688;2023-07-02T06:50:20;23.33;;;8.93;;
24216;SDS011;12356;49.386;8.688;2023-07-02T06:52:52;15.73;;;8.35;;
24216;SDS011;12356;49.386;8.688;2023-07-02T06:55:22;18.65;;;8.65;;
24216;SDS011;12356;49.386;8.688;2023-07-02T06:57:53;15.88;;;8.57;;
24216;SDS011;12356;49.386;8.688;2023-07-02T07:00:24;17.38;;;8.35;;
24216;SDS011;12356;49.386;8.688;2023-07-02T07:02:55;18.55;;;9.43;;
24216;SDS011;12356;49.386;8.688;2023-07-02T07:05:25;17.17;;;9.02;;
24216;SDS011;12356;49.386;8.688;2023-07-02T07:07:56;19.58;;;8.88;;
24216;SDS011;12356;49.386;8.688;2023-07-02T07:10:26;15.48;;;8.40;;
24216;SDS011;12356;49.386;8.688;2023-07-02T07:12:57;17.13;;;8.50;;
24216;SDS011;12356;49.386;8.688;2023-07-02T07:15:32;14.98;;;8.80;;
24216;SDS011;12356;49.386;8.688;2023-07-02T07:18:04;18.02;;;9.15;;
24216;SDS011;12356;49.386;8.688;2023-07-02T07:20:34;16.73;;;8.70;;
24216;SDS011;12356;49.386;8.688;2023-07-02T07:23:05;15.90;;;8.73;;
24216;SDS011;12356;49.386;8.688;2023-07-02T07:25:35;18.30;;;9.30;;
24216;SDS011;12356;49.386;8.688;2023-07-02T07:28:06;18.15;;;9.52;;
24216;SDS011;12356;49.386;8.688;2023-07-02T07:30:37;17.35;;;9.23;;
24216;SDS011;12356;49.386;8.688;2023-07-02T07:33:07;21.50;;;9.45;;
24216;SDS011;12356;49.386;8.688;2023-07-02T07:35:38;19.70;;;10.02;;
24216;SDS011;12356;49.386;8.688;2023-07-02T07:38:09;17.23;;;9.60;;
24216;SDS011;12356;49.386;8.688;2023-07-02T07:40:39;18.33;;;9.65;;
24216;SDS011;12356;49.386;8.688;2023-07-02T07:43:10;21.58;;;10.43;;
24216;SDS011;12356;49.386;8.688;2023-07-02T07:45:41;17.48;;;9.98;;
24216;SDS011;12356;49.386;8.688;2023-07-02T07:48:12;19.50;;;10.38;;
24216;SDS011;12356;49.386;8.688;2023-07-02T07:50:42;19.88;;;10.18;;
24216;SDS011;12356;49.386;8.688;2023-07-02T07:53:13;22.63;;;10.65;;
24216;SDS011;12356;49.386;8.688;2023-07-02T07:55:44;17.52;;;10.48;;
24216;SDS011;12356;49.386;8.688;2023-07-02T07:58:15;22.38;;;11.23;;
24216;SDS011;12356;49.386;8.688;2023-07-02T08:00:45;20.15;;;10.73;;
24216;SDS011;12356;49.386;8.688;2023-07-02T08:03:16;20.70;;;11.00;;
24216;SDS011;12356;49.386;8.688;2023-07-02T08:05:47;20.85;;;10.73;;
24216;SDS011;12356;49.386;8.688;2023-07-02T08:08:17;22.48;;;11.20;;
24216;SDS011;12356;49.386;8.688;2023-07-02T08:10:48;22.95;;;11.00;;
24216;SDS011;12356;49.386;8.688;2023-07-02T08:13:20;22.10;;;11.18;;
24216;SDS011;12356;49.386;8.688;2023-07-02T08:15:50;23.27;;;11.65;;
24216;SDS011;12356;49.386;8.688;2023-07-02T08:18:21;21.95;;;11.15;;
24216;SDS011;12356;49.386;8.688;2023-07-02T08:20:51;23.70;;;11.57;;
24216;SDS011;12356;49.386;8.688;2023-07-02T08:23:22;22.70;;;11.55;;
24216;SDS011;12356;49.386;8.688;2023-07-02T08:25:52;22.40;;;11.20;;
24216;SDS011;12356;49.386;8.688;2023-07-02T08:28:23;22.98;;;12.60;;
24216;SDS011;12356;49.386;8.688;2023-07-02T08:30:54;23.70;;;12.88;;
24216;SDS011;12356;49.386;8.688;2023-07-02T08:33:24;21.52;;;12.75;;
24216;SDS011;12356;49.386;8.688;2023-07-02T08:35:55;26.17;;;13.30;;
24216;SDS011;12356;49.386;8.688;2023-07-02T08:38:26;21.85;;;12.65;;
24216;SDS011;12356;49.386;8.688;2023-07-02T08:40:56;25.25;;;12.65;;
24216;SDS011;12356;49.386;8.688;2023-07-02T08:43:27;22.88;;;12.90;;
24216;SDS011;12356;49.386;8.688;2023-07-02T08:45:59;22.70;;;13.10;;
24216;SDS011;12356;49.386;8.688;2023-07-02T08:48:30;26.70;;;13.32;;
24216;SDS011;12356;49.386;8.688;2023-07-02T08:51:02;24.30;;;13.52;;
24216;SDS011;12356;49.386;8.688;2023-07-02T08:53:33;27.15;;;13.90;;
24216;SDS011;12356;49.386;8.688;2023-07-02T08:56:03;24.13;;;12.98;;
24216;SDS011;12356;49.386;8.688;2023-07-02T08:58:34;26.65;;;13.73;;
24216;SDS011;12356;49.386;8.688;2023-07-02T09:01:09;25.83;;;13.15;;
24216;SDS011;12356;49.386;8.688;2023-07-02T09:03:40;23.48;;;13.18;;
24216;SDS011;12356;49.386;8.688;2023-07-02T09:06:11;24.30;;;13.13;;
24216;SDS011;12356;49.386;8.688;2023-07-02T09:08:42;25.73;;;13.15;;
24216;SDS011;12356;49.386;8.688;2023-07-02T09:11:14;25.83;;;13.98;;
24216;SDS011;12356;49.386;8.688;2023-07-02T09:19:01;20.98;;;11.73;;
24216;SDS011;12356;49.386;8.688;2023-07-02T09:24:20;20.13;;;12.48;;
24216;SDS011;12356;49.386;8.688;2023-07-02T09:26:55;23.98;;;12.07;;
24216;SDS011;12356;49.386;8.688;2023-07-02T09:29:27;23.70;;;12.35;;
24216;SDS011;12356;49.386;8.688;2023-07-02T09:32:08;23.02;;;12.88;;
24216;SDS011;12356;49.386;8.688;2023-07-02T09:34:38;20.95;;;12.10;;
24216;SDS011;12356;49.386;8.688;2023-07-02T09:37:11;22.13;;;12.65;;
24216;SDS011;12356;49.386;8.688;2023-07-02T09:39:42;23.08;;;12.43;;
24216;SDS011;12356;49.386;8.688;2023-07-02T09:42:13;24.13;;;13.00;;
24216;SDS011;12356;49.386;8.688;2023-07-02T09:44:44;25.35;;;12.82;;
24216;SDS011;12356;49.386;8.688;2023-07-02T09:47:16;21.67;;;12.23;;
24216;SDS011;12356;49.386;8.688;2023-07-02T09:49:49;22.98;;;12.68;;
24216;SDS011;12356;49.386;8.688;2023-07-02T09:52:24;24.00;;;12.65;;
24216;SDS011;12356;49.386;8.688;2023-07-02T09:54:57;25.42;;;12.40;;
24216;SDS011;12356;49.386;8.688;2023-07-02T09:57:28;18.98;;;11.70;;
24216;SDS011;12356;49.386;8.688;2023-07-02T10:00:01;21.77;;;12.50;;
24216;SDS011;12356;49.386;8.688;2023-07-02T10:02:33;27.50;;;12.77;;
24216;SDS011;12356;49.386;8.688;2023-07-02T10:05:04;24.45;;;12.60;;
24216;SDS011;12356;49.386;8.688;2023-07-02T10:07:34;23.27;;;12.80;;
24216;SDS011;12356;49.386;8.688;2023-07-02T10:10:05;23.33;;;13.10;;
24216;SDS011;12356;49.386;8.688;2023-07-02T10:12:45;21.45;;;12.73;;
24216;SDS011;12356;49.386;8.688;2023-07-02T10:15:24;23.42;;;12.75;;
24216;SDS011;12356;49.386;8.688;2023-07-02T10:17:59;21.58;;;12.65;;
24216;SDS011;12356;49.386;8.688;2023-07-02T10:20:40;26.83;;;12.93;;
24216;SDS011;12356;49.386;8.688;2023-07-02T10:23:11;23.35;;;12.40;;
24216;SDS011;12356;49.386;8.688;2023-07-02T10:25:42;21.83;;;12.45;;
24216;SDS011;12356;49.386;8.688;2023-07-02T10:28:16;22.25;;;12.75;;
24216;SDS011;12356;49.386;8.688;2023-07-02T10:30:47;24.45;;;12.73;;
24216;SDS011;12356;49.386;8.688;2023-07-02T10:33:18;24.80;;;12.77;;
24216;SDS011;12356;49.386;8.688;2023-07-02T10:35:49;25.88;;;13.85;;
24216;SDS011;12356;49.386;8.688;2023-07-02T10:38:20;26.00;;;13.35;;
24216;SDS011;12356;49.386;8.688;2023-07-02T10:40:56;25.85;;;13.32;;
24216;SDS011;12356;49.386;8.688;2023-07-02T10:43:33;24.08;;;13.32;;
24216;SDS011;12356;49.386;8.688;2023-07-02T10:46:04;24.60;;;13.43;;
24216;SDS011;12356;49.386;8.688;2023-07-02T10:48:35;26.33;;;14.32;;
24216;SDS011;12356;49.386;8.688;2023-07-02T10:51:11;25.15;;;14.30;;
24216;SDS011;12356;49.386;8.688;2023-07-02T10:53:43;23.90;;;13.60;;
24216;SDS011;12356;49.386;8.688;2023-07-02T10:56:16;26.83;;;14.55;;
24216;SDS011;12356;49.386;8.688;2023-07-02T10:58:47;23.85;;;13.45;;
24216;SDS011;12356;49.386;8.688;2023-07-02T11:01:21;29.38;;;14.00;;
24216;SDS011;12356;49.386;8.688;2023-07-02T11:04:03;25.70;;;13.52;;
24216;SDS011;12356;49.386;8.688;2023-07-02T11:06:34;29.00;;;14.07;;
24216;SDS011;12356;49.386;8.688;2023-07-02T11:09:14;24.58;;;13.77;;
24216;SDS011;12356;49.386;8.688;2023-07-02T11:11:53;28.38;;;13.93;;
24216;SDS011;12356;49.386;8.688;2023-07-02T11:17:06;29.30;;;14.73;;
24216;SDS011;12356;49.386;8.688;2023-07-02T11:19:37;26.10;;;14.13;;
24216;SDS011;12356;49.386;8.688;2023-07-02T11:22:07;25.67;;;13.77;;
24216;SDS011;12356;49.386;8.688;2023-07-02T11:24:38;25.33;;;13.45;;
24216;SDS011;12356;49.386;8.688;2023-07-02T11:27:09;27.23;;;13.95;;
24216;SDS011;12356;49.386;8.688;2023-07-02T11:32:29;25.58;;;14.23;;
24216;SDS011;12356;49.386;8.688;2023-07-02T11:34:59;25.02;;;14.32;;
24216;SDS011;12356;49.386;8.688;2023-07-02T11:37:30;26.85;;;14.57;;
24216;SDS011;12356;49.386;8.688;2023-07-02T11:40:00;26.15;;;14.32;;
24216;SDS011;12356;49.386;8.688;2023-07-02T11:42:31;23.35;;;13.90;;
24216;SDS011;12356;49.386;8.688;2023-07-02T11:45:01;26.30;;;14.32;;
24216;SDS011;12356;49.386;8.688;2023-07-02T11:47:32;24.27;;;14.60;;
24216;SDS011;12356;49.386;8.688;2023-07-02T11:50:03;25.63;;;14.40;;
24216;SDS011;12356;49.386;8.688;2023-07-02T11:52:34;25.58;;;13.77;;
24216;SDS011;12356;49.386;8.688;2023-07-02T11:55:04;26.85;;;13.80;;
24216;SDS011;12356;49.386;8.688;2023-07-02T11:57:35;25.10;;;14.00;;
24216;SDS011;12356;49.386;8.688;2023-07-02T12:00:06;27.02;;;14.13;;
24216;SDS011;12356;49.386;8.688;2023-07-02T12:02:37;22.42;;;13.80;;
24216;SDS011;12356;49.386;8.688;2023-07-02T12:05:08;24.90;;;13.60;;
24216;SDS011;12356;49.386;8.688;2023-07-02T12:07:38;24.50;;;13.80;;
24216;SDS011;12356;49.386;8.688;2023-07-02T12:10:09;26.15;;;14.60;;
24216;SDS011;12356;49.386;8.688;2023-07-02T12:12:39;24.63;;;14.40;;
24216;SDS011;12356;49.386;8.688;2023-07-02T12:15:10;25.83;;;14.02;;
24216;SDS011;12356;49.386;8.688;2023-07-02T12:17:41;28.33;;;14.02;;
24216;SDS011;12356;49.386;8.688;2023-07-02T12:20:12;22.15;;;14.10;;
24216;SDS011;12356;49.386;8.688;2023-07-02T12:22:42;28.23;;;14.45;;
24216;SDS011;12356;49.386;8.688;2023-07-02T12:25:14;26.52;;;14.63;;
24216;SDS011;12356;49.386;8.688;2023-07-02T12:27:45;27.60;;;14.48;;
24216;SDS011;12356;49.386;8.688;2023-07-02T12:30:15;26.23;;;14.60;;
24216;SDS011;12356;49.386;8.688;2023-07-02T12:32:47;22.33;;;13.77;;
24216;SDS011;12356;49.386;8.688;2023-07-02T12:35:17;23.23;;;13.95;;
24216;SDS011;12356;49.386;8.688;2023-07-02T12:37:50;24.75;;;13.85;;
24216;SDS011;12356;49.386;8.688;2023-07-02T12:40:21;25.02;;;14.35;;
24216;SDS011;12356;49.386;8.688;2023-07-02T12:42:52;25.35;;;13.75;;
24216;SDS011;12356;49.386;8.688;2023-07-02T12:45:22;22.85;;;13.38;;
24216;SDS011;12356;49.386;8.688;2023-07-02T12:47:53;25.40;;;14.30;;
24216;SDS011;12356;49.386;8.688;2023-07-02T12:50:24;25.13;;;14.25;;
24216;SDS011;12356;49.386;8.688;2023-07-02T12:52:54;23.90;;;13.25;;
24216;SDS011;12356;49.386;8.688;2023-07-02T12:55:25;23.20;;;14.00;;
24216;SDS011;12356;49.386;8.688;2023-07-02T12:57:55;24.65;;;14.55;;
24216;SDS011;12356;49.386;8.688;2023-07-02T13:00:26;22.00;;;13.63;;
24216;SDS011;12356;49.386;8.688;2023-07-02T13:02:57;22.42;;;13.10;;
24216;SDS011;12356;49.386;8.688;2023-07-02T13:05:27;23.58;;;13.60;;
24216;SDS011;12356;49.386;8.688;2023-07-02T13:07:58;28.27;;;14.10;;
24216;SDS011;12356;49.386;8.688;2023-07-02T13:10:29;23.17;;;13.88;;
24216;SDS011;12356;49.386;8.688;2023-07-02T13:13:00;20.13;;;13.30;;
24216;SDS011;12356;49.386;8.688;2023-07-02T13:15:31;24.58;;;14.13;;
24216;SDS011;12356;49.386;8.688;2023-07-02T13:18:01;24.30;;;14.35;;
24216;SDS011;12356;49.386;8.688;2023-07-02T13:20:32;23.02;;;14.18;;
24216;SDS011;12356;49.386;8.688;2023-07-02T13:23:03;27.67;;;13.88;;
24216;SDS011;12356;49.386;8.688;2023-07-02T13:25:33;21.50;;;13.07;;
24216;SDS011;12356;49.386;8.688;2023-07-02T13:28:04;23.30;;;14.20;;
24216;SDS011;12356;49.386;8.688;2023-07-02T13:30:35;22.63;;;12.98;;
24216;SDS011;12356;49.386;8.688;2023-07-02T13:33:05;22.25;;;13.40;;
24216;SDS011;12356;49.386;8.688;2023-07-02T13:35:36;25.85;;;13.38;;
24216;SDS011;12356;49.386;8.688;2023-07-02T13:38:08;29.30;;;14.27;;
24216;SDS011;12356;49.386;8.688;2023-07-02T13:40:38;23.95;;;13.20;;
24216;SDS011;12356;49.386;8.688;2023-07-02T13:43:09;22.83;;;13.25;;
24216;SDS011;12356;49.386;8.688;2023-07-02T13:45:39;25.83;;;13.98;;
24216;SDS011;12356;49.386;8.688;2023-07-02T13:48:10;23.00;;;13.43;;
24216;SDS011;12356;49.386;8.688;2023-07-02T13:50:40;23.35;;;13.43;;
24216;SDS011;12356;49.386;8.688;2023-07-02T13:53:11;23.90;;;13.18;;
24216;SDS011;12356;49.386;8.688;2023-07-02T13:55:42;25.20;;;14.15;;
24216;SDS011;12356;49.386;8.688;2023-07-02T13:58:12;23.85;;;13.95;;
24216;SDS011;12356;49.386;8.688;2023-07-02T14:00:43;22.50;;;13.02;;
24216;SDS011;12356;49.386;8.688;2023-07-02T14:03:14;27.00;;;14.02;;
24216;SDS011;12356;49.386;8.688;2023-07-02T14:05:44;29.55;;;14.32;;
24216;SDS011;12356;49.386;8.688;2023-07-02T14:08:15;22.73;;;13.80;;
24216;SDS011;12356;49.386;8.688;2023-07-02T14:10:45;24.27;;;14.05;;
24216;SDS011;12356;49.386;8.688;2023-07-02T14:13:16;23.77;;;13.43;;
24216;SDS011;12356;49.386;8.688;2023-07-02T14:15:46;21.88;;;13.32;;
24216;SDS011;12356;49.386;8.688;2023-07-02T14:18:18;22.85;;;13.35;;
24216;SDS011;12356;49.386;8.688;2023-07-02T14:20:48;25.20;;;13.52;;
24216;SDS011;12356;49.386;8.688;2023-07-02T14:23:19;21.40;;;13.13;;
24216;SDS011;12356;49.386;8.688;2023-07-02T14:25:49;24.92;;;14.50;;
24216;SDS011;12356;49.386;8.688;2023-07-02T14:28:20;23.30;;;13.93;;
24216;SDS011;12356;49.386;8.688;2023-07-02T14:30:55;21.58;;;13.05;;
24216;SDS011;12356;49.386;8.688;2023-07-02T14:33:28;22.77;;;13.98;;
24216;SDS011;12356;49.386;8.688;2023-07-02T14:38:31;22.77;;;13.52;;
24216;SDS011;12356;49.386;8.688;2023-07-02T14:41:03;24.25;;;14.18;;
24216;SDS011;12356;49.386;8.688;2023-07-02T14:43:33;25.17;;;14.82;;
24216;SDS011;12356;49.386;8.688;2023-07-02T14:46:04;26.95;;;13.85;;
24216;SDS011;12356;49.386;8.688;2023-07-02T14:48:35;25.40;;;13.50;;
24216;SDS011;12356;49.386;8.688;2023-07-02T14:51:05;23.85;;;13.68;;
24216;SDS011;12356;49.386;8.688;2023-07-02T14:53:36;27.38;;;14.68;;
24216;SDS011;12356;49.386;8.688;2023-07-02T14:56:07;22.63;;;13.90;;
24216;SDS011;12356;49.386;8.688;2023-07-02T14:58:38;23.15;;;13.20;;
24216;SDS011;12356;49.386;8.688;2023-07-02T15:01:09;24.40;;;13.77;;
24216;SDS011;12356;49.386;8.688;2023-07-02T15:03:39;26.55;;;13.05;;
24216;SDS011;12356;49.386;8.688;2023-07-02T15:06:11;25.00;;;13.93;;
24216;SDS011;12356;49.386;8.688;2023-07-02T15:08:44;26.00;;;12.80;;
24216;SDS011;12356;49.386;8.688;2023-07-02T15:11:15;25.45;;;14.30;;